createdAt,value
2017-08-07T00:01:48.275Z,4.43
2017-08-07T00:04:16.632Z,4.50
2017-08-07T00:06:45.794Z,4.60
2017-08-07T00:09:14.760Z,4.77
2017-08-07T00:11:43.133Z,4.73
2017-08-07T00:14:11.509Z,4.70
2017-08-07T00:16:40.146Z,4.87
2017-08-07T00:19:08.585Z,4.43
2017-08-07T00:21:36.951Z,4.60
2017-08-07T00:24:05.830Z,5.20
2017-08-07T00:26:34.191Z,5.13
2017-08-07T00:29:03.312Z,5.20
2017-08-07T00:31:31.951Z,4.90
2017-08-07T00:34:00.300Z,4.47
2017-08-07T00:36:28.658Z,4.27
2017-08-07T00:38:57.272Z,4.37
2017-08-07T00:41:25.624Z,5.03
2017-08-07T00:43:53.983Z,4.90
2017-08-07T00:46:22.716Z,5.50
2017-08-07T00:48:51.104Z,5.00
2017-08-07T00:51:19.504Z,4.37
2017-08-07T00:53:48.233Z,5.47
2017-08-07T00:56:16.595Z,5.27
2017-08-07T00:58:44.944Z,5.00
2017-08-07T01:01:13.878Z,4.50
2017-08-07T01:03:42.225Z,5.20
2017-08-07T01:06:10.617Z,4.87
2017-08-07T01:08:39.475Z,4.63
2017-08-07T01:11:07.871Z,5.57
2017-08-07T01:13:36.254Z,5.23
2017-08-07T01:16:05.185Z,5.47
2017-08-07T01:18:33.580Z,5.10
2017-08-07T01:21:01.959Z,5.87
2017-08-07T01:23:30.637Z,5.97
2017-08-07T01:25:58.996Z,5.70
2017-08-07T01:28:27.335Z,5.50
2017-08-07T01:30:56.269Z,4.90
2017-08-07T01:33:24.613Z,5.57
2017-08-07T01:35:53.796Z,5.60
2017-08-07T01:38:22.482Z,5.20
2017-08-07T01:40:50.880Z,5.23
2017-08-07T01:43:19.234Z,5.67
2017-08-07T01:45:48.190Z,5.80
2017-08-07T01:48:16.559Z,4.80
2017-08-07T01:50:44.905Z,6.20
2017-08-07T01:53:13.850Z,5.50
2017-08-07T01:55:42.210Z,5.73
2017-08-07T01:58:10.559Z,6.33
2017-08-07T02:00:39.463Z,6.10
2017-08-07T02:03:07.868Z,6.03
2017-08-07T02:05:36.219Z,5.30
2017-08-07T02:08:04.854Z,5.90
2017-08-07T02:10:33.627Z,5.20
2017-08-07T02:13:01.998Z,5.20
2017-08-07T02:15:31.399Z,5.47
2017-08-07T02:17:59.751Z,5.33
2017-08-07T02:20:28.118Z,6.63
2017-08-07T02:22:56.783Z,5.80
2017-08-07T02:25:25.180Z,7.63
2017-08-07T02:27:53.564Z,5.80
2017-08-07T02:30:22.238Z,6.03
2017-08-07T02:32:50.664Z,5.30
2017-08-07T02:35:19.016Z,5.53
2017-08-07T02:37:47.937Z,6.00
2017-08-07T02:40:16.310Z,5.70
2017-08-07T02:42:44.672Z,6.80
2017-08-07T02:45:13.398Z,5.80
2017-08-07T02:47:41.747Z,5.87
2017-08-07T02:50:10.103Z,7.07
2017-08-07T02:52:38.869Z,6.60
2017-08-07T02:55:07.253Z,5.53
2017-08-07T02:57:35.594Z,5.83
2017-08-07T03:00:04.488Z,6.40
2017-08-07T03:02:32.837Z,6.43
2017-08-07T03:05:01.999Z,7.13
2017-08-07T03:07:30.977Z,6.90
2017-08-07T03:09:59.337Z,7.07
2017-08-07T03:12:27.876Z,7.23
2017-08-07T03:14:56.606Z,6.33
2017-08-07T03:17:24.947Z,6.50
2017-08-07T03:19:54.072Z,6.97
2017-08-07T03:22:22.754Z,6.77
2017-08-07T03:24:51.102Z,7.00
2017-08-07T03:27:19.451Z,6.90
2017-08-07T03:29:48.139Z,7.27
2017-08-07T03:32:16.500Z,6.70
2017-08-07T03:34:44.845Z,7.10
2017-08-07T03:37:13.507Z,7.60
2017-08-07T03:39:41.876Z,6.97
2017-08-07T03:42:10.229Z,7.13
2017-08-07T03:44:39.194Z,6.73
2017-08-07T03:47:07.540Z,7.07
2017-08-07T03:49:35.891Z,6.97
2017-08-07T03:52:04.538Z,6.67
2017-08-07T03:54:32.896Z,8.20
2017-08-07T03:57:01.262Z,7.17
2017-08-07T03:59:30.089Z,6.83
2017-08-07T04:01:58.446Z,6.97
2017-08-07T04:04:27.560Z,7.53
2017-08-07T04:06:56.343Z,7.80
2017-08-07T04:09:24.690Z,7.37
2017-08-07T04:11:53.013Z,7.63
2017-08-07T04:14:21.799Z,7.33
2017-08-07T04:16:50.135Z,6.90
2017-08-07T04:19:18.488Z,7.60
2017-08-07T04:21:47.248Z,7.10
2017-08-07T04:24:15.653Z,7.30
2017-08-07T04:26:43.996Z,7.83
2017-08-07T04:29:12.902Z,8.33
2017-08-07T04:31:41.248Z,7.90
2017-08-07T04:34:10.357Z,8.10
2017-08-07T04:36:39.153Z,8.00
2017-08-07T04:39:07.521Z,7.40
2017-08-07T04:41:36.699Z,8.63
2017-08-07T04:44:05.670Z,8.10
2017-08-07T04:46:34.045Z,8.73
2017-08-07T04:49:02.391Z,8.70
2017-08-07T04:51:31.113Z,8.33
2017-08-07T04:53:59.538Z,8.60
2017-08-07T04:56:27.909Z,10.20
2017-08-07T04:58:56.680Z,9.90
2017-08-07T05:01:25.037Z,11.00
2017-08-07T05:03:53.439Z,9.73
2017-08-07T05:06:22.184Z,10.73
2017-08-07T05:08:50.521Z,11.40
2017-08-07T05:11:18.874Z,11.93
2017-08-07T05:13:47.643Z,11.73
2017-08-07T05:16:16.024Z,11.70
2017-08-07T05:18:44.475Z,14.47
2017-08-07T05:21:13.239Z,12.97
2017-08-07T05:23:41.637Z,13.10
2017-08-07T05:26:10.007Z,13.40
2017-08-07T05:28:38.707Z,11.60
2017-08-07T05:31:07.158Z,11.13
2017-08-07T05:33:35.712Z,12.70
2017-08-07T05:36:04.432Z,12.53
2017-08-07T05:38:32.790Z,13.03
2017-08-07T05:41:01.201Z,12.70
2017-08-07T05:43:30.052Z,13.60
2017-08-07T05:45:58.422Z,11.80
2017-08-07T05:48:26.770Z,11.93
2017-08-07T05:50:55.507Z,11.50
2017-08-07T05:53:23.886Z,10.30
2017-08-07T05:55:52.252Z,11.27
2017-08-07T05:58:21.110Z,11.90
2017-08-07T06:00:49.463Z,10.50
2017-08-07T06:03:18.589Z,10.80
2017-08-07T06:05:47.213Z,9.80
2017-08-07T06:08:15.590Z,9.70
2017-08-07T06:10:43.976Z,10.20
2017-08-07T06:13:12.652Z,9.30
2017-08-07T06:15:41.071Z,10.90
2017-08-07T06:18:09.492Z,9.70
2017-08-07T06:20:38.428Z,9.00
2017-08-07T06:23:06.783Z,9.50
2017-08-07T06:25:35.170Z,8.40
2017-08-07T06:28:03.866Z,8.90
2017-08-07T06:30:32.199Z,8.60
2017-08-07T06:33:00.588Z,8.43
2017-08-07T06:35:29.367Z,6.97
2017-08-07T06:37:57.722Z,8.63
2017-08-07T06:40:26.850Z,7.50
2017-08-07T06:42:55.859Z,7.60
2017-08-07T06:45:24.241Z,6.80
2017-08-07T06:47:52.622Z,6.33
2017-08-07T06:50:21.354Z,6.53
2017-08-07T06:52:49.773Z,6.17
2017-08-07T06:55:18.162Z,5.37
2017-08-07T06:57:46.822Z,5.77
2017-08-07T07:00:15.205Z,5.30
2017-08-07T07:02:43.545Z,5.03
2017-08-07T07:05:12.331Z,5.53
2017-08-07T07:07:40.747Z,5.27
2017-08-07T07:10:09.197Z,5.40
2017-08-07T07:12:37.908Z,5.67
2017-08-07T07:15:06.312Z,5.03
2017-08-07T07:17:34.728Z,4.60
2017-08-07T07:20:03.351Z,4.63
2017-08-07T07:22:31.729Z,4.57
2017-08-07T07:25:00.121Z,4.60
2017-08-07T07:27:28.835Z,3.93
2017-08-07T07:29:57.423Z,3.90
2017-08-07T07:32:25.858Z,4.13
2017-08-07T07:34:54.529Z,3.93
2017-08-07T07:37:22.924Z,3.00
2017-08-07T07:39:51.329Z,3.30
2017-08-07T07:42:20.210Z,3.30
2017-08-07T07:44:48.594Z,3.13
2017-08-07T07:47:16.999Z,3.47
2017-08-07T07:49:45.761Z,3.37
2017-08-07T07:52:14.182Z,3.00
2017-08-07T07:54:42.765Z,3.67
2017-08-07T07:57:11.544Z,2.87
2017-08-07T07:59:39.917Z,3.33
2017-08-07T08:02:08.282Z,3.27
2017-08-07T08:04:37.025Z,2.93
2017-08-07T08:07:06.140Z,3.20
2017-08-07T08:09:34.527Z,3.30
2017-08-07T08:12:03.807Z,3.00
2017-08-07T08:14:32.225Z,3.90
2017-08-07T08:17:00.621Z,4.77
2017-08-07T08:19:29.286Z,3.80
2017-08-07T08:21:57.735Z,3.97
2017-08-07T08:24:26.179Z,4.37
2017-08-07T08:26:54.866Z,4.00
2017-08-07T08:29:23.260Z,4.27
2017-08-07T08:31:51.626Z,3.90
2017-08-07T08:34:20.896Z,4.40
2017-08-07T08:36:49.354Z,4.40
2017-08-07T08:39:17.732Z,4.33
2017-08-07T08:41:46.502Z,4.07
2017-08-07T08:44:14.874Z,4.30
2017-08-07T08:46:43.545Z,3.63
2017-08-07T08:49:13.527Z,4.37
2017-08-07T08:51:42.577Z,4.23
2017-08-07T08:54:11.249Z,4.13
2017-08-07T08:56:40.298Z,3.90
2017-08-07T08:59:09.603Z,3.80
2017-08-07T09:01:37.986Z,4.73
2017-08-07T09:04:06.881Z,4.10
2017-08-07T09:06:35.264Z,4.27
2017-08-07T09:09:03.674Z,4.37
2017-08-07T09:11:32.541Z,4.80
2017-08-07T09:14:00.914Z,4.63
2017-08-07T09:16:29.283Z,4.03
2017-08-07T09:18:58.083Z,3.80
2017-08-07T09:21:26.430Z,4.30
2017-08-07T09:23:54.786Z,3.97
2017-08-07T09:26:23.553Z,3.90
2017-08-07T09:28:51.924Z,4.20
2017-08-07T09:31:20.304Z,4.10
2017-08-07T09:33:48.987Z,3.40
2017-08-07T09:36:17.368Z,3.23
2017-08-07T09:38:45.746Z,3.60
2017-08-07T09:41:15.045Z,3.50
2017-08-07T09:43:43.423Z,3.97
2017-08-07T09:46:11.811Z,3.90
2017-08-07T09:48:40.775Z,3.80
2017-08-07T09:51:09.173Z,3.87
2017-08-07T09:53:37.520Z,3.40
2017-08-07T09:56:06.415Z,3.23
2017-08-07T09:58:34.838Z,2.80
2017-08-07T10:01:03.227Z,3.00
2017-08-07T10:03:32.021Z,3.20
2017-08-07T10:06:00.412Z,3.40
2017-08-07T10:08:29.589Z,2.90
2017-08-07T10:10:58.288Z,3.03
2017-08-07T10:13:26.672Z,2.77
2017-08-07T10:15:55.060Z,3.03
2017-08-07T10:18:23.793Z,3.13
2017-08-07T10:20:52.174Z,2.30
2017-08-07T10:23:20.554Z,2.50
2017-08-07T10:25:49.532Z,2.40
2017-08-07T10:28:17.943Z,2.87
2017-08-07T10:30:46.312Z,2.10
2017-08-07T10:33:15.036Z,2.10
2017-08-07T10:35:43.440Z,2.53
2017-08-07T10:38:12.591Z,2.97
2017-08-07T10:40:41.345Z,2.53
2017-08-07T10:43:09.754Z,2.57
2017-08-07T10:45:38.095Z,2.70
2017-08-07T10:48:13.455Z,2.60
2017-08-07T10:50:41.819Z,3.00
2017-08-07T10:53:10.196Z,2.40
2017-08-07T10:55:38.979Z,2.67
2017-08-07T10:58:07.364Z,2.43
2017-08-07T11:00:35.743Z,2.40
2017-08-07T11:03:04.501Z,2.40
2017-08-07T11:05:33.645Z,2.20
2017-08-07T11:08:02.006Z,2.47
2017-08-07T11:10:30.684Z,2.40
2017-08-07T11:12:58.997Z,2.13
2017-08-07T11:15:27.351Z,2.40
2017-08-07T11:17:56.004Z,2.50
2017-08-07T11:20:24.356Z,2.90
2017-08-07T11:22:52.746Z,2.10
2017-08-07T11:25:21.378Z,2.60
2017-08-07T11:27:49.731Z,2.80
2017-08-07T11:30:18.074Z,2.20
2017-08-07T11:32:47.242Z,2.40
2017-08-07T11:35:15.623Z,2.20
2017-08-07T11:37:43.981Z,2.20
2017-08-07T11:40:12.871Z,2.43
2017-08-07T11:42:41.247Z,1.93
2017-08-07T11:45:10.360Z,2.50
2017-08-07T11:47:39.033Z,2.47
2017-08-07T11:50:07.451Z,2.60
2017-08-07T11:52:35.812Z,2.60
2017-08-07T11:55:04.630Z,2.23
2017-08-07T11:57:33.020Z,2.17
2017-08-07T12:00:01.408Z,2.50
2017-08-07T12:02:30.035Z,2.23
2017-08-07T12:04:58.371Z,2.23
2017-08-07T12:07:26.712Z,2.80
2017-08-07T12:09:55.466Z,2.37
2017-08-07T12:12:23.839Z,2.37
2017-08-07T12:14:52.981Z,2.40
2017-08-07T12:17:21.683Z,2.20
2017-08-07T12:19:50.065Z,2.40
2017-08-07T12:22:18.434Z,2.30
2017-08-07T12:24:47.160Z,2.30
2017-08-07T12:27:15.555Z,2.00
2017-08-07T12:29:43.919Z,2.50
2017-08-07T12:32:12.614Z,2.60
2017-08-07T12:34:40.981Z,2.20
2017-08-07T12:37:09.424Z,2.97
2017-08-07T12:39:38.316Z,2.30
2017-08-07T12:42:06.666Z,2.00
2017-08-07T12:44:35.023Z,2.47
2017-08-07T12:47:03.657Z,2.13
2017-08-07T12:49:32.024Z,2.50
2017-08-07T12:52:00.469Z,2.90
2017-08-07T12:54:29.393Z,2.20
2017-08-07T12:56:57.765Z,2.40
2017-08-07T12:59:26.115Z,2.53
2017-08-07T13:01:55.027Z,2.40
2017-08-07T13:04:23.383Z,2.57
2017-08-07T13:06:52.525Z,2.40
2017-08-07T13:09:21.240Z,2.63
2017-08-07T13:11:49.597Z,2.33
2017-08-07T13:14:17.954Z,2.60
2017-08-07T13:16:46.959Z,2.53
2017-08-07T13:19:15.358Z,2.67
2017-08-07T13:21:43.723Z,2.07
2017-08-07T13:24:12.605Z,2.77
2017-08-07T13:26:40.967Z,3.00
2017-08-07T13:29:09.318Z,2.43
2017-08-07T13:31:38.188Z,2.30
2017-08-07T13:34:06.538Z,2.13
2017-08-07T13:36:34.881Z,2.57
2017-08-07T13:39:04.298Z,2.80
2017-08-07T13:41:32.676Z,3.47
2017-08-07T13:44:01.035Z,3.00
2017-08-07T13:46:29.803Z,2.87
2017-08-07T13:48:58.200Z,2.50
2017-08-07T13:51:26.593Z,2.87
2017-08-07T13:53:55.299Z,3.10
2017-08-07T13:56:23.677Z,2.83
2017-08-07T13:58:52.046Z,3.07
2017-08-07T14:01:20.743Z,2.93
2017-08-07T14:03:49.106Z,2.53
2017-08-07T14:06:17.495Z,3.00
2017-08-07T14:08:46.530Z,2.10
2017-08-07T14:11:14.908Z,2.60
2017-08-07T14:13:43.266Z,2.83
2017-08-07T14:16:11.950Z,2.70
2017-08-07T14:18:40.301Z,2.57
2017-08-07T14:21:08.638Z,3.00
2017-08-07T14:23:37.378Z,2.87
2017-08-07T14:26:05.752Z,2.83
2017-08-07T14:28:34.106Z,2.80
2017-08-07T14:31:03.085Z,3.00
2017-08-07T14:33:31.455Z,3.03
2017-08-07T14:35:59.821Z,2.37
2017-08-07T14:38:28.429Z,2.73
2017-08-07T14:40:56.774Z,2.77
2017-08-07T14:43:25.149Z,2.20
2017-08-07T14:45:53.939Z,2.17
2017-08-07T14:48:22.345Z,2.40
2017-08-07T14:50:50.736Z,2.30
2017-08-07T14:53:19.460Z,2.30
2017-08-07T14:55:48.653Z,2.40
2017-08-07T14:58:17.088Z,2.67
2017-08-07T15:00:46.025Z,2.60
2017-08-07T15:03:14.378Z,2.53
2017-08-07T15:05:42.760Z,3.00
2017-08-07T15:08:11.721Z,2.40
2017-08-07T15:10:40.078Z,2.17
2017-08-07T15:13:08.458Z,2.50
2017-08-07T15:15:37.359Z,2.47
2017-08-07T15:18:05.708Z,2.70
2017-08-07T15:20:34.087Z,3.70
2017-08-07T15:23:02.804Z,2.60
2017-08-07T15:25:31.156Z,2.50
2017-08-07T15:27:59.547Z,2.83
2017-08-07T15:30:28.237Z,2.63
2017-08-07T15:32:56.608Z,2.60
2017-08-07T15:35:25.017Z,2.80
2017-08-07T15:37:54.111Z,2.87
2017-08-07T15:40:22.493Z,2.53
2017-08-07T15:42:50.864Z,2.63
2017-08-07T15:45:19.583Z,2.20
2017-08-07T15:47:47.944Z,2.57
2017-08-07T15:50:16.293Z,2.67
2017-08-07T15:52:45.173Z,2.20
2017-08-07T15:55:13.501Z,2.60
2017-08-07T15:57:41.863Z,2.63
2017-08-07T16:00:10.884Z,2.50
2017-08-07T16:02:39.282Z,2.27
2017-08-07T16:05:07.687Z,2.60
2017-08-07T16:07:36.392Z,2.23
2017-08-07T16:10:04.776Z,2.13
2017-08-07T16:12:33.135Z,2.20
2017-08-07T16:15:01.756Z,2.20
2017-08-07T16:17:30.140Z,2.40
2017-08-07T16:19:58.541Z,2.20
2017-08-07T16:22:27.247Z,2.30
2017-08-07T16:24:55.606Z,2.30
2017-08-07T16:27:23.984Z,2.43
2017-08-07T16:30:02.419Z,2.63
2017-08-07T16:32:30.857Z,2.20
2017-08-07T16:34:59.234Z,2.20
2017-08-07T16:37:28.281Z,2.50
2017-08-07T16:39:56.715Z,2.60
2017-08-07T16:42:25.074Z,2.10
2017-08-07T16:44:53.922Z,2.13
2017-08-07T16:47:22.272Z,2.80
2017-08-07T16:49:50.643Z,2.43
2017-08-07T16:52:19.333Z,2.37
2017-08-07T16:54:47.681Z,2.63
2017-08-07T16:57:16.051Z,2.37
2017-08-07T16:59:45.282Z,2.47
2017-08-07T17:02:13.660Z,2.57
2017-08-07T17:04:42.046Z,2.97
2017-08-07T17:07:10.914Z,3.00
2017-08-07T17:09:39.277Z,2.43
2017-08-07T17:12:07.653Z,2.90
2017-08-07T17:14:36.422Z,2.60
2017-08-07T17:17:05.551Z,2.20
2017-08-07T17:19:33.897Z,2.73
2017-08-07T17:22:02.582Z,3.53
2017-08-07T17:24:30.924Z,2.67
2017-08-07T17:26:59.292Z,2.60
2017-08-07T17:29:28.002Z,2.40
2017-08-07T17:31:56.343Z,2.90
2017-08-07T17:34:24.688Z,3.13
2017-08-07T17:36:53.457Z,2.27
2017-08-07T17:39:21.801Z,3.00
2017-08-07T17:41:50.143Z,2.50
2017-08-07T17:44:19.186Z,2.97
2017-08-07T17:46:47.546Z,2.60
2017-08-07T17:49:15.916Z,2.67
2017-08-07T17:51:44.791Z,2.87
2017-08-07T17:54:13.166Z,2.90
2017-08-07T17:56:42.401Z,4.00
2017-08-07T17:59:11.029Z,3.17
2017-08-07T18:01:39.392Z,2.40
2017-08-07T18:04:07.748Z,3.37
2017-08-07T18:06:36.456Z,2.80
2017-08-07T18:09:04.805Z,2.43
2017-08-07T18:11:33.151Z,2.80
2017-08-07T18:14:02.795Z,2.60
2017-08-07T18:16:31.162Z,2.57
2017-08-07T18:18:59.502Z,2.80
2017-08-07T18:21:28.242Z,3.30
2017-08-07T18:23:56.595Z,2.80
2017-08-07T18:26:24.967Z,2.77
2017-08-07T18:28:53.696Z,2.40
2017-08-07T18:31:22.046Z,3.30
2017-08-07T18:33:50.395Z,3.47
2017-08-07T18:36:19.333Z,5.03
2017-08-07T18:38:47.745Z,4.80
2017-08-07T18:41:16.100Z,4.87
2017-08-07T18:43:44.996Z,5.87
2017-08-07T18:46:13.361Z,4.87
2017-08-07T18:48:41.733Z,4.93
2017-08-07T18:51:10.612Z,5.10
2017-08-07T18:53:38.949Z,4.27
2017-08-07T18:56:07.321Z,4.30
2017-08-07T18:58:36.039Z,4.90
2017-08-07T19:01:08.690Z,6.97
2017-08-07T19:03:47.272Z,8.57
2017-08-07T19:06:15.639Z,6.83
2017-08-07T19:08:44.079Z,6.60
2017-08-07T19:11:12.824Z,6.63
2017-08-07T19:13:41.196Z,5.80
2017-08-07T19:16:09.596Z,6.40
2017-08-07T19:18:38.480Z,6.70
2017-08-07T19:21:06.833Z,6.17
2017-08-07T19:23:35.245Z,7.60
2017-08-07T19:26:03.887Z,6.87
2017-08-07T19:28:32.290Z,6.33
2017-08-07T19:31:00.670Z,5.80
2017-08-07T19:33:29.604Z,6.90
2017-08-07T19:35:57.948Z,6.60
2017-08-07T19:38:26.351Z,6.27
2017-08-07T19:40:55.018Z,7.10
2017-08-07T19:43:23.378Z,8.00
2017-08-07T19:45:56.981Z,6.20
2017-08-07T19:48:26.308Z,6.50
2017-08-07T19:50:54.706Z,6.27
2017-08-07T19:53:23.584Z,6.63
2017-08-07T19:55:51.936Z,7.53
2017-08-07T19:58:20.299Z,8.20
2017-08-07T20:00:48.965Z,7.90
2017-08-07T20:03:17.355Z,7.57
2017-08-07T20:05:45.758Z,8.20
2017-08-07T20:08:14.645Z,8.43
2017-08-07T20:10:43.003Z,9.07
2017-08-07T20:13:12.120Z,8.87
2017-08-07T20:15:40.861Z,9.03
2017-08-07T20:18:09.264Z,9.40
2017-08-07T20:20:37.691Z,8.90
2017-08-07T20:23:06.581Z,10.00
2017-08-07T20:25:34.930Z,10.27
2017-08-07T20:28:04.073Z,8.17
2017-08-07T20:30:32.862Z,8.20
2017-08-07T20:33:01.269Z,8.13
2017-08-07T20:35:29.652Z,7.13
2017-08-07T20:37:58.503Z,6.40
2017-08-07T20:40:26.872Z,6.80
2017-08-07T20:42:55.300Z,7.30
2017-08-07T20:45:24.959Z,6.50
2017-08-07T20:47:53.338Z,7.83
2017-08-07T20:50:21.766Z,7.47
2017-08-07T20:52:50.627Z,8.17
2017-08-07T20:55:18.994Z,7.20
2017-08-07T20:57:47.390Z,6.80
2017-08-07T21:00:16.222Z,7.90
2017-08-07T21:02:44.619Z,7.00
2017-08-07T21:05:13.021Z,8.07
2017-08-07T21:07:41.925Z,7.50
2017-08-07T21:10:10.264Z,6.63
2017-08-07T21:12:38.658Z,7.50
2017-08-07T21:15:07.404Z,7.30
2017-08-07T21:17:35.844Z,8.00
2017-08-07T21:20:04.256Z,7.40
2017-08-07T21:22:33.242Z,6.37
2017-08-07T21:25:01.632Z,6.90
2017-08-07T21:27:30.002Z,5.90
2017-08-07T21:29:58.665Z,6.40
2017-08-07T21:32:27.027Z,6.53
2017-08-07T21:34:55.394Z,5.83
2017-08-07T21:37:24.091Z,6.63
2017-08-07T21:39:52.445Z,6.80
2017-08-07T21:42:20.827Z,6.37
2017-08-07T21:44:49.864Z,6.83
2017-08-07T21:47:18.238Z,7.50
2017-08-07T21:49:46.629Z,6.43
2017-08-07T21:52:15.290Z,6.90
2017-08-07T21:54:43.692Z,6.60
2017-08-07T21:57:12.091Z,7.50
2017-08-07T21:59:40.851Z,6.93
2017-08-07T22:02:09.272Z,7.20
2017-08-07T22:04:37.624Z,7.33
2017-08-07T22:07:06.702Z,6.97
2017-08-07T22:09:35.064Z,7.43
2017-08-07T22:12:03.465Z,7.27
2017-08-07T22:14:32.117Z,7.20
2017-08-07T22:17:00.534Z,7.07
2017-08-07T22:19:28.926Z,7.07
2017-08-07T22:21:57.782Z,6.43
2017-08-07T22:24:26.178Z,6.70
2017-08-07T22:26:54.548Z,7.53
2017-08-07T22:29:23.429Z,7.23
2017-08-07T22:31:51.818Z,8.00
2017-08-07T22:34:20.181Z,8.40
2017-08-07T22:36:48.906Z,8.13
2017-08-07T22:39:17.292Z,7.73
2017-08-07T22:41:45.656Z,8.10
2017-08-07T22:44:14.539Z,7.93
2017-08-07T22:46:42.948Z,7.90
2017-08-07T22:49:11.346Z,8.00
2017-08-07T22:51:41.225Z,8.60
2017-08-07T22:54:09.595Z,7.40
2017-08-07T22:56:38.017Z,7.70
2017-08-07T22:59:06.756Z,7.40
2017-08-07T23:01:35.133Z,7.30
2017-08-07T23:04:03.488Z,8.23
2017-08-07T23:06:32.167Z,8.37
2017-08-07T23:09:00.544Z,7.73
2017-08-07T23:11:28.892Z,7.87
2017-08-07T23:13:57.764Z,7.80
2017-08-07T23:16:26.169Z,7.77
2017-08-07T23:18:54.539Z,8.90
2017-08-07T23:21:23.219Z,7.70
2017-08-07T23:23:51.587Z,7.77
2017-08-07T23:26:19.961Z,8.47
2017-08-07T23:28:48.842Z,7.90
2017-08-07T23:31:17.202Z,8.27
2017-08-07T23:33:45.582Z,7.33
2017-08-07T23:36:14.292Z,7.60
2017-08-07T23:38:42.661Z,7.47
2017-08-07T23:41:11.012Z,7.10
2017-08-07T23:43:39.735Z,6.73
2017-08-07T23:46:08.148Z,7.30
2017-08-07T23:48:36.608Z,7.20
2017-08-07T23:51:05.379Z,7.60
2017-08-07T23:53:33.768Z,7.13
2017-08-07T23:56:02.216Z,6.70
2017-08-07T23:58:31.111Z,7.80
